sensor_id;sensor_type;location;lat;lon;timestamp;P1;durP1;ratioP1;P2;durP2;ratioP2
18259;SDS011;9256;52.236;5.712;2023-11-18T00:01:48;78.80;;;21.77;;
18259;SDS011;9256;52.236;5.712;2023-11-18T00:04:17;78.00;;;22.20;;
18259;SDS011;9256;52.236;5.712;2023-11-18T00:06:44;99.47;;;31.27;;
18259;SDS011;9256;52.236;5.712;2023-11-18T00:09:16;84.60;;;24.60;;
18259;SDS011;9256;52.236;5.712;2023-11-18T00:11:50;84.93;;;23.63;;
18259;SDS011;9256;52.236;5.712;2023-11-18T00:14:19;80.60;;;22.27;;
18259;SDS011;9256;52.236;5.712;2023-11-18T00:16:51;72.50;;;22.27;;
18259;SDS011;9256;52.236;5.712;2023-11-18T00:19:22;71.97;;;22.20;;
18259;SDS011;9256;52.236;5.712;2023-11-18T00:21:52;81.63;;;23.90;;
18259;SDS011;9256;52.236;5.712;2023-11-18T00:24:21;80.37;;;23.47;;
18259;SDS011;9256;52.236;5.712;2023-11-18T00:26:50;80.47;;;23.30;;
18259;SDS011;9256;52.236;5.712;2023-11-18T00:29:20;74.00;;;22.30;;
18259;SDS011;9256;52.236;5.712;2023-11-18T00:31:48;98.45;;;32.33;;
18259;SDS011;9256;52.236;5.712;2023-11-18T00:34:19;88.83;;;25.63;;
18259;SDS011;9256;52.236;5.712;2023-11-18T00:36:48;81.50;;;24.57;;
18259;SDS011;9256;52.236;5.712;2023-11-18T00:39:18;75.80;;;23.13;;
18259;SDS011;9256;52.236;5.712;2023-11-18T00:41:47;98.00;;;31.02;;
18259;SDS011;9256;52.236;5.712;2023-11-18T00:44:16;76.90;;;24.37;;
18259;SDS011;9256;52.236;5.712;2023-11-18T00:46:43;79.90;;;23.67;;
18259;SDS011;9256;52.236;5.712;2023-11-18T00:49:13;78.90;;;22.63;;
18259;SDS011;9256;52.236;5.712;2023-11-18T00:51:41;79.00;;;22.87;;
18259;SDS011;9256;52.236;5.712;2023-11-18T00:54:10;74.47;;;22.20;;
18259;SDS011;9256;52.236;5.712;2023-11-18T00:56:43;76.57;;;22.57;;
18259;SDS011;9256;52.236;5.712;2023-11-18T00:59:12;81.20;;;23.33;;
18259;SDS011;9256;52.236;5.712;2023-11-18T01:01:41;76.10;;;22.43;;
18259;SDS011;9256;52.236;5.712;2023-11-18T01:04:08;75.40;;;22.23;;
18259;SDS011;9256;52.236;5.712;2023-11-18T01:06:39;74.90;;;22.43;;
18259;SDS011;9256;52.236;5.712;2023-11-18T01:09:06;77.97;;;22.10;;
18259;SDS011;9256;52.236;5.712;2023-11-18T01:11:34;75.93;;;23.07;;
18259;SDS011;9256;52.236;5.712;2023-11-18T01:14:02;75.67;;;22.33;;
18259;SDS011;9256;52.236;5.712;2023-11-18T01:16:35;74.40;;;21.83;;
18259;SDS011;9256;52.236;5.712;2023-11-18T01:19:05;78.87;;;23.10;;
18259;SDS011;9256;52.236;5.712;2023-11-18T01:21:34;69.27;;;21.93;;
18259;SDS011;9256;52.236;5.712;2023-11-18T01:24:03;75.13;;;23.27;;
18259;SDS011;9256;52.236;5.712;2023-11-18T01:26:31;74.60;;;21.53;;
18259;SDS011;9256;52.236;5.712;2023-11-18T01:29:10;74.23;;;21.20;;
18259;SDS011;9256;52.236;5.712;2023-11-18T01:31:44;71.57;;;21.63;;
18259;SDS011;9256;52.236;5.712;2023-11-18T01:34:11;69.67;;;22.13;;
18259;SDS011;9256;52.236;5.712;2023-11-18T01:36:38;82.40;;;22.57;;
18259;SDS011;9256;52.236;5.712;2023-11-18T01:39:06;74.43;;;22.00;;
18259;SDS011;9256;52.236;5.712;2023-11-18T01:41:34;73.20;;;21.80;;
18259;SDS011;9256;52.236;5.712;2023-11-18T01:44:02;76.40;;;22.37;;
18259;SDS011;9256;52.236;5.712;2023-11-18T01:46:30;85.77;;;23.63;;
18259;SDS011;9256;52.236;5.712;2023-11-18T01:48:59;80.30;;;23.40;;
18259;SDS011;9256;52.236;5.712;2023-11-18T01:51:26;79.90;;;24.10;;
18259;SDS011;9256;52.236;5.712;2023-11-18T01:53:55;92.40;;;23.83;;
18259;SDS011;9256;52.236;5.712;2023-11-18T01:56:25;83.47;;;23.67;;
18259;SDS011;9256;52.236;5.712;2023-11-18T01:58:57;91.40;;;24.17;;
18259;SDS011;9256;52.236;5.712;2023-11-18T02:01:25;81.10;;;23.00;;
18259;SDS011;9256;52.236;5.712;2023-11-18T02:03:54;87.83;;;24.70;;
18259;SDS011;9256;52.236;5.712;2023-11-18T02:06:23;83.13;;;24.63;;
18259;SDS011;9256;52.236;5.712;2023-11-18T02:08:50;84.50;;;24.60;;
18259;SDS011;9256;52.236;5.712;2023-11-18T02:11:20;82.23;;;24.33;;
18259;SDS011;9256;52.236;5.712;2023-11-18T02:13:55;85.37;;;24.63;;
18259;SDS011;9256;52.236;5.712;2023-11-18T02:16:27;87.90;;;25.83;;
18259;SDS011;9256;52.236;5.712;2023-11-18T02:18:55;86.97;;;24.80;;
18259;SDS011;9256;52.236;5.712;2023-11-18T02:21:24;88.63;;;25.23;;
18259;SDS011;9256;52.236;5.712;2023-11-18T02:23:52;82.50;;;24.53;;
18259;SDS011;9256;52.236;5.712;2023-11-18T02:26:22;110.40;;;34.20;;
18259;SDS011;9256;52.236;5.712;2023-11-18T02:28:52;100.73;;;28.83;;
18259;SDS011;9256;52.236;5.712;2023-11-18T02:31:21;91.70;;;26.03;;
18259;SDS011;9256;52.236;5.712;2023-11-18T02:33:59;102.23;;;27.37;;
18259;SDS011;9256;52.236;5.712;2023-11-18T02:36:34;103.73;;;26.33;;
18259;SDS011;9256;52.236;5.712;2023-11-18T02:39:11;118.88;;;33.15;;
18259;SDS011;9256;52.236;5.712;2023-11-18T02:41:44;96.00;;;28.27;;
18259;SDS011;9256;52.236;5.712;2023-11-18T02:44:14;101.43;;;27.90;;
18259;SDS011;9256;52.236;5.712;2023-11-18T02:46:46;100.57;;;27.17;;
18259;SDS011;9256;52.236;5.712;2023-11-18T02:49:13;94.40;;;27.15;;
18259;SDS011;9256;52.236;5.712;2023-11-18T02:51:42;92.03;;;27.13;;
18259;SDS011;9256;52.236;5.712;2023-11-18T02:54:12;102.53;;;27.83;;
18259;SDS011;9256;52.236;5.712;2023-11-18T02:56:41;107.27;;;28.50;;
18259;SDS011;9256;52.236;5.712;2023-11-18T02:59:12;116.50;;;28.43;;
18259;SDS011;9256;52.236;5.712;2023-11-18T03:01:39;105.88;;;28.98;;
18259;SDS011;9256;52.236;5.712;2023-11-18T03:04:08;103.93;;;27.57;;
18259;SDS011;9256;52.236;5.712;2023-11-18T03:06:35;102.00;;;28.87;;
18259;SDS011;9256;52.236;5.712;2023-11-18T03:09:05;114.70;;;29.55;;
18259;SDS011;9256;52.236;5.712;2023-11-18T03:11:35;107.88;;;27.20;;
18259;SDS011;9256;52.236;5.712;2023-11-18T03:14:03;126.57;;;28.90;;
18259;SDS011;9256;52.236;5.712;2023-11-18T03:16:36;111.07;;;28.73;;
18259;SDS011;9256;52.236;5.712;2023-11-18T03:19:04;106.43;;;28.10;;
18259;SDS011;9256;52.236;5.712;2023-11-18T03:21:32;94.43;;;26.40;;
18259;SDS011;9256;52.236;5.712;2023-11-18T03:23:59;105.00;;;27.80;;
18259;SDS011;9256;52.236;5.712;2023-11-18T03:26:26;109.07;;;28.60;;
18259;SDS011;9256;52.236;5.712;2023-11-18T03:28:53;110.22;;;29.27;;
18259;SDS011;9256;52.236;5.712;2023-11-18T03:31:20;120.47;;;27.90;;
18259;SDS011;9256;52.236;5.712;2023-11-18T03:33:52;105.87;;;27.80;;
18259;SDS011;9256;52.236;5.712;2023-11-18T03:36:19;110.23;;;27.63;;
18259;SDS011;9256;52.236;5.712;2023-11-18T03:38:46;109.23;;;27.40;;
18259;SDS011;9256;52.236;5.712;2023-11-18T03:41:15;110.80;;;28.60;;
18259;SDS011;9256;52.236;5.712;2023-11-18T03:43:43;107.82;;;28.10;;
18259;SDS011;9256;52.236;5.712;2023-11-18T03:46:13;105.55;;;27.65;;
18259;SDS011;9256;52.236;5.712;2023-11-18T03:48:40;114.70;;;28.27;;
18259;SDS011;9256;52.236;5.712;2023-11-18T03:51:10;108.27;;;28.33;;
18259;SDS011;9256;52.236;5.712;2023-11-18T03:53:37;113.93;;;27.97;;
18259;SDS011;9256;52.236;5.712;2023-11-18T03:56:05;124.03;;;27.97;;
18259;SDS011;9256;52.236;5.712;2023-11-18T03:58:32;110.33;;;28.33;;
18259;SDS011;9256;52.236;5.712;2023-11-18T04:00:59;106.67;;;27.37;;
18259;SDS011;9256;52.236;5.712;2023-11-18T04:03:26;108.97;;;27.83;;
18259;SDS011;9256;52.236;5.712;2023-11-18T04:05:53;104.30;;;27.97;;
18259;SDS011;9256;52.236;5.712;2023-11-18T04:08:22;99.03;;;27.23;;
18259;SDS011;9256;52.236;5.712;2023-11-18T04:10:49;102.43;;;26.77;;
18259;SDS011;9256;52.236;5.712;2023-11-18T04:13:16;105.37;;;27.57;;
18259;SDS011;9256;52.236;5.712;2023-11-18T04:15:43;113.70;;;27.90;;
18259;SDS011;9256;52.236;5.712;2023-11-18T04:18:14;112.37;;;26.80;;
18259;SDS011;9256;52.236;5.712;2023-11-18T04:20:41;105.13;;;27.10;;
18259;SDS011;9256;52.236;5.712;2023-11-18T04:23:08;107.87;;;28.27;;
18259;SDS011;9256;52.236;5.712;2023-11-18T04:25:38;108.87;;;27.47;;
18259;SDS011;9256;52.236;5.712;2023-11-18T04:28:05;110.97;;;26.87;;
18259;SDS011;9256;52.236;5.712;2023-11-18T04:30:32;102.67;;;26.73;;
18259;SDS011;9256;52.236;5.712;2023-11-18T04:32:59;102.93;;;26.60;;
18259;SDS011;9256;52.236;5.712;2023-11-18T04:35:26;135.20;;;37.67;;
18259;SDS011;9256;52.236;5.712;2023-11-18T04:37:57;106.28;;;28.98;;
18259;SDS011;9256;52.236;5.712;2023-11-18T04:40:26;110.28;;;27.83;;
18259;SDS011;9256;52.236;5.712;2023-11-18T04:42:55;103.35;;;27.65;;
18259;SDS011;9256;52.236;5.712;2023-11-18T04:45:22;108.57;;;26.17;;
18259;SDS011;9256;52.236;5.712;2023-11-18T04:47:49;113.00;;;27.13;;
18259;SDS011;9256;52.236;5.712;2023-11-18T04:50:16;105.03;;;25.95;;
18259;SDS011;9256;52.236;5.712;2023-11-18T04:52:44;100.43;;;26.63;;
18259;SDS011;9256;52.236;5.712;2023-11-18T04:55:10;103.40;;;26.00;;
18259;SDS011;9256;52.236;5.712;2023-11-18T04:57:39;95.80;;;25.60;;
18259;SDS011;9256;52.236;5.712;2023-11-18T05:00:08;112.03;;;26.83;;
18259;SDS011;9256;52.236;5.712;2023-11-18T05:02:42;98.70;;;26.17;;
18259;SDS011;9256;52.236;5.712;2023-11-18T05:05:09;96.20;;;26.03;;
18259;SDS011;9256;52.236;5.712;2023-11-18T05:07:37;102.13;;;26.33;;
18259;SDS011;9256;52.236;5.712;2023-11-18T05:10:06;94.47;;;25.45;;
18259;SDS011;9256;52.236;5.712;2023-11-18T05:12:34;95.90;;;24.67;;
18259;SDS011;9256;52.236;5.712;2023-11-18T05:15:01;96.47;;;24.90;;
18259;SDS011;9256;52.236;5.712;2023-11-18T05:17:31;100.85;;;25.52;;
18259;SDS011;9256;52.236;5.712;2023-11-18T05:20:00;103.50;;;26.60;;
18259;SDS011;9256;52.236;5.712;2023-11-18T05:22:29;110.93;;;26.97;;
18259;SDS011;9256;52.236;5.712;2023-11-18T05:24:56;99.20;;;25.10;;
18259;SDS011;9256;52.236;5.712;2023-11-18T05:27:27;96.20;;;24.57;;
18259;SDS011;9256;52.236;5.712;2023-11-18T05:29:54;109.23;;;26.63;;
18259;SDS011;9256;52.236;5.712;2023-11-18T05:32:26;101.28;;;25.10;;
18259;SDS011;9256;52.236;5.712;2023-11-18T05:34:55;103.80;;;25.63;;
18259;SDS011;9256;52.236;5.712;2023-11-18T05:37:23;135.27;;;37.60;;
18259;SDS011;9256;52.236;5.712;2023-11-18T05:39:50;119.10;;;30.13;;
18259;SDS011;9256;52.236;5.712;2023-11-18T05:42:24;112.95;;;27.48;;
18259;SDS011;9256;52.236;5.712;2023-11-18T05:44:51;108.20;;;26.90;;
18259;SDS011;9256;52.236;5.712;2023-11-18T05:47:25;108.03;;;27.07;;
18259;SDS011;9256;52.236;5.712;2023-11-18T05:49:53;109.80;;;26.47;;
18259;SDS011;9256;52.236;5.712;2023-11-18T05:52:23;120.73;;;27.20;;
18259;SDS011;9256;52.236;5.712;2023-11-18T05:54:50;101.05;;;25.90;;
18259;SDS011;9256;52.236;5.712;2023-11-18T05:57:17;103.40;;;25.77;;
18259;SDS011;9256;52.236;5.712;2023-11-18T05:59:44;146.73;;;37.80;;
18259;SDS011;9256;52.236;5.712;2023-11-18T06:02:13;114.30;;;28.42;;
18259;SDS011;9256;52.236;5.712;2023-11-18T06:04:44;110.50;;;26.67;;
18259;SDS011;9256;52.236;5.712;2023-11-18T06:07:14;102.50;;;25.50;;
18259;SDS011;9256;52.236;5.712;2023-11-18T06:09:41;119.30;;;26.42;;
18259;SDS011;9256;52.236;5.712;2023-11-18T06:12:08;105.00;;;26.00;;
18259;SDS011;9256;52.236;5.712;2023-11-18T06:14:35;100.07;;;25.33;;
18259;SDS011;9256;52.236;5.712;2023-11-18T06:17:03;98.72;;;24.88;;
18259;SDS011;9256;52.236;5.712;2023-11-18T06:19:32;110.97;;;26.53;;
18259;SDS011;9256;52.236;5.712;2023-11-18T06:22:02;91.75;;;24.88;;
18259;SDS011;9256;52.236;5.712;2023-11-18T06:24:32;92.77;;;25.07;;
18259;SDS011;9256;52.236;5.712;2023-11-18T06:26:59;97.23;;;25.33;;
18259;SDS011;9256;52.236;5.712;2023-11-18T06:29:26;97.22;;;25.38;;
18259;SDS011;9256;52.236;5.712;2023-11-18T06:31:54;91.17;;;25.30;;
18259;SDS011;9256;52.236;5.712;2023-11-18T06:34:21;87.97;;;25.63;;
18259;SDS011;9256;52.236;5.712;2023-11-18T06:36:51;99.22;;;25.15;;
18259;SDS011;9256;52.236;5.712;2023-11-18T06:39:18;98.43;;;25.45;;
18259;SDS011;9256;52.236;5.712;2023-11-18T06:41:48;94.57;;;25.50;;
18259;SDS011;9256;52.236;5.712;2023-11-18T06:44:18;90.00;;;24.83;;
18259;SDS011;9256;52.236;5.712;2023-11-18T06:46:49;107.50;;;29.15;;
18259;SDS011;9256;52.236;5.712;2023-11-18T06:49:16;87.75;;;25.73;;
18259;SDS011;9256;52.236;5.712;2023-11-18T06:51:44;95.43;;;25.17;;
18259;SDS011;9256;52.236;5.712;2023-11-18T06:54:12;86.57;;;25.30;;
18259;SDS011;9256;52.236;5.712;2023-11-18T06:56:39;88.35;;;25.13;;
18259;SDS011;9256;52.236;5.712;2023-11-18T06:59:10;89.57;;;24.47;;
18259;SDS011;9256;52.236;5.712;2023-11-18T07:01:40;80.77;;;24.83;;
18259;SDS011;9256;52.236;5.712;2023-11-18T07:04:10;88.87;;;24.60;;
18259;SDS011;9256;52.236;5.712;2023-11-18T07:06:39;106.47;;;32.80;;
18259;SDS011;9256;52.236;5.712;2023-11-18T07:09:06;101.93;;;27.60;;
18259;SDS011;9256;52.236;5.712;2023-11-18T07:11:38;84.33;;;24.73;;
18259;SDS011;9256;52.236;5.712;2023-11-18T07:14:06;84.50;;;24.23;;
18259;SDS011;9256;52.236;5.712;2023-11-18T07:16:35;84.03;;;24.63;;
18259;SDS011;9256;52.236;5.712;2023-11-18T07:19:05;83.50;;;25.03;;
18259;SDS011;9256;52.236;5.712;2023-11-18T07:21:31;87.90;;;24.43;;
18259;SDS011;9256;52.236;5.712;2023-11-18T07:23:59;83.67;;;24.30;;
18259;SDS011;9256;52.236;5.712;2023-11-18T07:26:28;90.43;;;25.30;;
18259;SDS011;9256;52.236;5.712;2023-11-18T07:28:55;89.43;;;25.47;;
18259;SDS011;9256;52.236;5.712;2023-11-18T07:31:22;86.43;;;25.77;;
18259;SDS011;9256;52.236;5.712;2023-11-18T07:33:51;94.90;;;26.07;;
18259;SDS011;9256;52.236;5.712;2023-11-18T07:36:19;83.15;;;25.25;;
18259;SDS011;9256;52.236;5.712;2023-11-18T07:38:46;83.47;;;24.97;;
18259;SDS011;9256;52.236;5.712;2023-11-18T07:41:15;79.37;;;24.17;;
18259;SDS011;9256;52.236;5.712;2023-11-18T07:43:49;83.40;;;25.23;;
18259;SDS011;9256;52.236;5.712;2023-11-18T07:46:17;78.78;;;24.38;;
18259;SDS011;9256;52.236;5.712;2023-11-18T07:48:52;86.22;;;24.92;;
18259;SDS011;9256;52.236;5.712;2023-11-18T07:51:20;80.73;;;24.53;;
18259;SDS011;9256;52.236;5.712;2023-11-18T07:53:48;74.33;;;23.33;;
18259;SDS011;9256;52.236;5.712;2023-11-18T07:56:15;78.53;;;24.97;;
18259;SDS011;9256;52.236;5.712;2023-11-18T07:58:42;82.30;;;25.07;;
18259;SDS011;9256;52.236;5.712;2023-11-18T08:01:11;82.03;;;24.00;;
18259;SDS011;9256;52.236;5.712;2023-11-18T08:03:42;76.47;;;23.50;;
18259;SDS011;9256;52.236;5.712;2023-11-18T08:06:14;71.17;;;22.93;;
18259;SDS011;9256;52.236;5.712;2023-11-18T08:08:42;71.60;;;23.93;;
18259;SDS011;9256;52.236;5.712;2023-11-18T08:11:10;78.50;;;24.40;;
18259;SDS011;9256;52.236;5.712;2023-11-18T08:13:37;78.83;;;24.47;;
18259;SDS011;9256;52.236;5.712;2023-11-18T08:16:05;72.33;;;22.90;;
18259;SDS011;9256;52.236;5.712;2023-11-18T08:18:33;78.17;;;23.87;;
18259;SDS011;9256;52.236;5.712;2023-11-18T08:21:00;74.07;;;23.30;;
18259;SDS011;9256;52.236;5.712;2023-11-18T08:23:29;70.03;;;22.25;;
18259;SDS011;9256;52.236;5.712;2023-11-18T08:25:56;70.53;;;22.73;;
18259;SDS011;9256;52.236;5.712;2023-11-18T08:28:24;68.23;;;21.60;;
18259;SDS011;9256;52.236;5.712;2023-11-18T08:30:51;68.10;;;21.83;;
18259;SDS011;9256;52.236;5.712;2023-11-18T08:33:19;71.87;;;22.03;;
18259;SDS011;9256;52.236;5.712;2023-11-18T08:35:49;69.10;;;21.52;;
18259;SDS011;9256;52.236;5.712;2023-11-18T08:38:16;72.77;;;22.07;;
18259;SDS011;9256;52.236;5.712;2023-11-18T08:40:46;68.00;;;21.70;;
18259;SDS011;9256;52.236;5.712;2023-11-18T08:43:16;64.40;;;20.87;;
18259;SDS011;9256;52.236;5.712;2023-11-18T08:45:47;69.97;;;21.80;;
18259;SDS011;9256;52.236;5.712;2023-11-18T08:48:15;61.50;;;20.67;;
18259;SDS011;9256;52.236;5.712;2023-11-18T08:50:44;64.00;;;20.55;;
18259;SDS011;9256;52.236;5.712;2023-11-18T08:53:12;69.23;;;20.87;;
18259;SDS011;9256;52.236;5.712;2023-11-18T08:55:44;57.40;;;19.93;;
18259;SDS011;9256;52.236;5.712;2023-11-18T08:58:22;67.97;;;20.57;;
18259;SDS011;9256;52.236;5.712;2023-11-18T09:00:55;57.22;;;19.95;;
18259;SDS011;9256;52.236;5.712;2023-11-18T09:03:30;60.23;;;19.87;;
18259;SDS011;9256;52.236;5.712;2023-11-18T09:06:08;66.68;;;25.73;;
18259;SDS011;9256;52.236;5.712;2023-11-18T09:08:42;58.03;;;20.33;;
18259;SDS011;9256;52.236;5.712;2023-11-18T09:11:11;54.07;;;18.87;;
18259;SDS011;9256;52.236;5.712;2023-11-18T09:13:41;54.20;;;17.67;;
18259;SDS011;9256;52.236;5.712;2023-11-18T09:16:10;58.95;;;20.42;;
18259;SDS011;9256;52.236;5.712;2023-11-18T09:18:38;49.97;;;17.10;;
18259;SDS011;9256;52.236;5.712;2023-11-18T09:21:08;50.20;;;16.40;;
18259;SDS011;9256;52.236;5.712;2023-11-18T09:23:40;44.80;;;15.60;;
18259;SDS011;9256;52.236;5.712;2023-11-18T09:26:07;47.22;;;16.02;;
18259;SDS011;9256;52.236;5.712;2023-11-18T09:28:36;42.97;;;15.45;;
18259;SDS011;9256;52.236;5.712;2023-11-18T09:31:09;47.05;;;15.68;;
18259;SDS011;9256;52.236;5.712;2023-11-18T09:33:39;52.70;;;15.37;;
18259;SDS011;9256;52.236;5.712;2023-11-18T09:36:18;43.20;;;14.10;;
18259;SDS011;9256;52.236;5.712;2023-11-18T09:38:47;46.55;;;14.18;;
18259;SDS011;9256;52.236;5.712;2023-11-18T09:41:14;44.28;;;14.60;;
18259;SDS011;9256;52.236;5.712;2023-11-18T09:43:42;42.63;;;14.10;;
18259;SDS011;9256;52.236;5.712;2023-11-18T09:46:13;34.65;;;12.48;;
18259;SDS011;9256;52.236;5.712;2023-11-18T09:48:44;37.67;;;12.40;;
18259;SDS011;9256;52.236;5.712;2023-11-18T09:51:15;36.57;;;12.27;;
18259;SDS011;9256;52.236;5.712;2023-11-18T09:53:48;31.65;;;11.63;;
18259;SDS011;9256;52.236;5.712;2023-11-18T09:56:18;38.88;;;11.95;;
18259;SDS011;9256;52.236;5.712;2023-11-18T09:58:57;33.10;;;11.27;;
18259;SDS011;9256;52.236;5.712;2023-11-18T10:01:35;35.33;;;12.30;;
18259;SDS011;9256;52.236;5.712;2023-11-18T10:04:06;31.47;;;10.63;;
18259;SDS011;9256;52.236;5.712;2023-11-18T10:06:34;34.03;;;11.10;;
18259;SDS011;9256;52.236;5.712;2023-11-18T10:09:05;31.47;;;11.10;;
18259;SDS011;9256;52.236;5.712;2023-11-18T10:11:42;32.63;;;11.30;;
18259;SDS011;9256;52.236;5.712;2023-11-18T10:14:13;32.63;;;12.10;;
18259;SDS011;9256;52.236;5.712;2023-11-18T10:16:43;35.10;;;11.20;;
18259;SDS011;9256;52.236;5.712;2023-11-18T10:19:13;30.83;;;10.70;;
18259;SDS011;9256;52.236;5.712;2023-11-18T10:21:42;35.20;;;10.97;;
18259;SDS011;9256;52.236;5.712;2023-11-18T10:24:13;32.77;;;10.93;;
18259;SDS011;9256;52.236;5.712;2023-11-18T10:26:45;29.73;;;10.60;;
18259;SDS011;9256;52.236;5.712;2023-11-18T10:29:21;36.80;;;10.17;;
18259;SDS011;9256;52.236;5.712;2023-11-18T10:32:03;29.05;;;10.27;;
18259;SDS011;9256;52.236;5.712;2023-11-18T10:34:33;32.63;;;10.73;;
18259;SDS011;9256;52.236;5.712;2023-11-18T10:37:01;29.73;;;9.98;;
18259;SDS011;9256;52.236;5.712;2023-11-18T10:39:32;28.50;;;10.10;;
18259;SDS011;9256;52.236;5.712;2023-11-18T10:42:00;32.70;;;10.70;;
18259;SDS011;9256;52.236;5.712;2023-11-18T10:44:30;35.67;;;11.00;;
18259;SDS011;9256;52.236;5.712;2023-11-18T10:46:57;32.00;;;10.87;;
18259;SDS011;9256;52.236;5.712;2023-11-18T10:49:28;31.57;;;10.27;;
18259;SDS011;9256;52.236;5.712;2023-11-18T10:52:01;30.37;;;10.23;;
18259;SDS011;9256;52.236;5.712;2023-11-18T10:54:33;32.70;;;10.23;;
18259;SDS011;9256;52.236;5.712;2023-11-18T10:57:02;32.05;;;9.95;;
18259;SDS011;9256;52.236;5.712;2023-11-18T10:59:32;31.85;;;10.65;;
18259;SDS011;9256;52.236;5.712;2023-11-18T11:01:59;32.30;;;10.90;;
18259;SDS011;9256;52.236;5.712;2023-11-18T11:04:28;32.77;;;10.40;;
18259;SDS011;9256;52.236;5.712;2023-11-18T11:07:10;35.43;;;10.57;;
18259;SDS011;9256;52.236;5.712;2023-11-18T11:09:40;31.30;;;10.37;;
18259;SDS011;9256;52.236;5.712;2023-11-18T11:12:11;38.78;;;10.25;;
18259;SDS011;9256;52.236;5.712;2023-11-18T11:14:42;36.30;;;10.37;;
18259;SDS011;9256;52.236;5.712;2023-11-18T11:17:19;29.50;;;9.93;;
18259;SDS011;9256;52.236;5.712;2023-11-18T11:19:59;34.67;;;10.30;;
18259;SDS011;9256;52.236;5.712;2023-11-18T11:22:45;29.23;;;9.38;;
18259;SDS011;9256;52.236;5.712;2023-11-18T11:25:21;32.97;;;10.30;;
18259;SDS011;9256;52.236;5.712;2023-11-18T11:27:55;37.75;;;12.30;;
18259;SDS011;9256;52.236;5.712;2023-11-18T11:30:28;31.92;;;10.70;;
18259;SDS011;9256;52.236;5.712;2023-11-18T11:33:00;30.45;;;10.75;;
18259;SDS011;9256;52.236;5.712;2023-11-18T11:35:36;34.03;;;10.63;;
18259;SDS011;9256;52.236;5.712;2023-11-18T11:38:10;29.92;;;9.65;;
18259;SDS011;9256;52.236;5.712;2023-11-18T11:40:42;28.50;;;9.53;;
18259;SDS011;9256;52.236;5.712;2023-11-18T11:43:11;30.93;;;8.90;;
18259;SDS011;9256;52.236;5.712;2023-11-18T11:45:46;29.38;;;9.45;;
18259;SDS011;9256;52.236;5.712;2023-11-18T11:48:14;27.27;;;9.13;;
18259;SDS011;9256;52.236;5.712;2023-11-18T11:53:40;25.73;;;8.88;;
18259;SDS011;9256;52.236;5.712;2023-11-18T11:56:13;23.75;;;8.27;;
18259;SDS011;9256;52.236;5.712;2023-11-18T11:58:47;22.83;;;8.90;;
18259;SDS011;9256;52.236;5.712;2023-11-18T12:01:22;29.17;;;9.45;;
18259;SDS011;9256;52.236;5.712;2023-11-18T12:03:56;30.30;;;9.18;;
18259;SDS011;9256;52.236;5.712;2023-11-18T12:06:28;27.80;;;10.30;;
18259;SDS011;9256;52.236;5.712;2023-11-18T12:08:56;25.13;;;9.00;;
18259;SDS011;9256;52.236;5.712;2023-11-18T12:11:31;27.83;;;9.97;;
18259;SDS011;9256;52.236;5.712;2023-11-18T12:14:02;22.98;;;8.38;;
18259;SDS011;9256;52.236;5.712;2023-11-18T12:16:59;22.20;;;9.23;;
18259;SDS011;9256;52.236;5.712;2023-11-18T12:19:33;22.63;;;7.55;;
18259;SDS011;9256;52.236;5.712;2023-11-18T12:22:11;21.63;;;8.00;;
18259;SDS011;9256;52.236;5.712;2023-11-18T12:28:15;23.13;;;7.90;;
18259;SDS011;9256;52.236;5.712;2023-11-18T12:30:46;22.17;;;7.60;;
18259;SDS011;9256;52.236;5.712;2023-11-18T12:33:23;24.83;;;7.93;;
18259;SDS011;9256;52.236;5.712;2023-11-18T12:42:00;21.25;;;8.32;;
18259;SDS011;9256;52.236;5.712;2023-11-18T12:44:33;19.90;;;7.18;;
18259;SDS011;9256;52.236;5.712;2023-11-18T12:47:05;24.73;;;7.82;;
18259;SDS011;9256;52.236;5.712;2023-11-18T12:49:40;20.60;;;7.07;;
18259;SDS011;9256;52.236;5.712;2023-11-18T12:52:07;17.67;;;6.68;;
18259;SDS011;9256;52.236;5.712;2023-11-18T12:54:36;21.00;;;7.72;;
18259;SDS011;9256;52.236;5.712;2023-11-18T12:57:08;25.15;;;7.03;;
18259;SDS011;9256;52.236;5.712;2023-11-18T12:59:39;21.00;;;6.97;;
18259;SDS011;9256;52.236;5.712;2023-11-18T13:02:06;20.92;;;7.20;;
18259;SDS011;9256;52.236;5.712;2023-11-18T13:04:38;20.55;;;6.85;;
18259;SDS011;9256;52.236;5.712;2023-11-18T13:07:06;18.27;;;6.65;;
18259;SDS011;9256;52.236;5.712;2023-11-18T13:09:37;21.23;;;7.28;;
18259;SDS011;9256;52.236;5.712;2023-11-18T13:12:06;25.27;;;6.57;;
18259;SDS011;9256;52.236;5.712;2023-11-18T13:14:34;17.80;;;6.47;;
18259;SDS011;9256;52.236;5.712;2023-11-18T13:17:02;16.52;;;6.30;;
18259;SDS011;9256;52.236;5.712;2023-11-18T13:19:31;17.35;;;6.55;;
18259;SDS011;9256;52.236;5.712;2023-11-18T13:22:02;17.13;;;6.47;;
18259;SDS011;9256;52.236;5.712;2023-11-18T13:24:33;17.75;;;5.60;;
18259;SDS011;9256;52.236;5.712;2023-11-18T13:27:01;14.25;;;5.82;;
18259;SDS011;9256;52.236;5.712;2023-11-18T13:29:29;14.02;;;5.55;;
18259;SDS011;9256;52.236;5.712;2023-11-18T13:31:57;14.50;;;5.53;;
18259;SDS011;9256;52.236;5.712;2023-11-18T13:34:25;14.52;;;5.63;;
18259;SDS011;9256;52.236;5.712;2023-11-18T13:36:55;14.65;;;5.50;;
18259;SDS011;9256;52.236;5.712;2023-11-18T13:39:22;12.48;;;4.88;;
18259;SDS011;9256;52.236;5.712;2023-11-18T13:41:52;18.97;;;7.33;;
18259;SDS011;9256;52.236;5.712;2023-11-18T13:44:34;13.55;;;5.63;;
18259;SDS011;9256;52.236;5.712;2023-11-18T13:47:04;13.38;;;5.32;;
18259;SDS011;9256;52.236;5.712;2023-11-18T13:49:31;12.07;;;4.82;;
18259;SDS011;9256;52.236;5.712;2023-11-18T13:51:59;17.35;;;6.97;;
18259;SDS011;9256;52.236;5.712;2023-11-18T13:54:27;15.07;;;5.65;;
18259;SDS011;9256;52.236;5.712;2023-11-18T13:56:54;12.23;;;5.55;;
18259;SDS011;9256;52.236;5.712;2023-11-18T13:59:23;16.90;;;5.50;;
18259;SDS011;9256;52.236;5.712;2023-11-18T14:01:53;14.30;;;5.30;;
18259;SDS011;9256;52.236;5.712;2023-11-18T14:04:22;13.68;;;4.53;;
18259;SDS011;9256;52.236;5.712;2023-11-18T14:06:50;13.85;;;5.90;;
18259;SDS011;9256;52.236;5.712;2023-11-18T14:09:18;10.55;;;4.75;;
18259;SDS011;9256;52.236;5.712;2023-11-18T14:11:47;11.23;;;4.55;;
18259;SDS011;9256;52.236;5.712;2023-11-18T14:14:14;10.85;;;4.43;;
18259;SDS011;9256;52.236;5.712;2023-11-18T14:16:42;10.18;;;4.40;;
18259;SDS011;9256;52.236;5.712;2023-11-18T14:19:11;9.98;;;4.47;;
18259;SDS011;9256;52.236;5.712;2023-11-18T14:21:38;11.15;;;4.50;;
18259;SDS011;9256;52.236;5.712;2023-11-18T14:24:07;8.43;;;3.55;;
18259;SDS011;9256;52.236;5.712;2023-11-18T14:26:35;9.15;;;3.83;;
18259;SDS011;9256;52.236;5.712;2023-11-18T14:29:02;9.27;;;4.00;;
18259;SDS011;9256;52.236;5.712;2023-11-18T14:31:29;8.80;;;3.60;;
18259;SDS011;9256;52.236;5.712;2023-11-18T14:33:56;9.05;;;3.53;;
18259;SDS011;9256;52.236;5.712;2023-11-18T14:36:25;8.73;;;3.75;;
18259;SDS011;9256;52.236;5.712;2023-11-18T14:38:52;8.30;;;3.50;;
18259;SDS011;9256;52.236;5.712;2023-11-18T14:41:19;7.70;;;3.28;;
18259;SDS011;9256;52.236;5.712;2023-11-18T14:43:50;8.70;;;3.85;;
18259;SDS011;9256;52.236;5.712;2023-11-18T14:46:17;6.75;;;3.47;;
18259;SDS011;9256;52.236;5.712;2023-11-18T14:48:44;7.65;;;3.65;;
18259;SDS011;9256;52.236;5.712;2023-11-18T14:51:14;9.02;;;4.47;;
18259;SDS011;9256;52.236;5.712;2023-11-18T14:53:42;5.07;;;2.60;;
18259;SDS011;9256;52.236;5.712;2023-11-18T14:56:09;7.18;;;3.13;;
18259;SDS011;9256;52.236;5.712;2023-11-18T14:58:36;6.57;;;3.08;;
18259;SDS011;9256;52.236;5.712;2023-11-18T15:01:03;6.13;;;2.85;;
18259;SDS011;9256;52.236;5.712;2023-11-18T15:03:32;6.95;;;2.78;;